sensor_id;sensor_type;location;lat;lon;timestamp;P1;durP1;ratioP1;P2;durP2;ratioP2
76236;SDS011;65038;53.200;6.530;2023-12-28T00:00:46;7.22;;;3.20;;
76236;SDS011;65038;53.200;6.530;2023-12-28T00:03:13;6.78;;;3.25;;
76236;SDS011;65038;53.200;6.530;2023-12-28T00:05:39;6.70;;;2.92;;
76236;SDS011;65038;53.200;6.530;2023-12-28T00:08:05;5.68;;;3.00;;
76236;SDS011;65038;53.200;6.530;2023-12-28T00:10:31;6.07;;;2.90;;
76236;SDS011;65038;53.200;6.530;2023-12-28T00:12:57;5.47;;;3.10;;
76236;SDS011;65038;53.200;6.530;2023-12-28T00:15:23;7.10;;;3.10;;
76236;SDS011;65038;53.200;6.530;2023-12-28T00:17:49;7.63;;;3.40;;
76236;SDS011;65038;53.200;6.530;2023-12-28T00:20:15;7.70;;;3.00;;
76236;SDS011;65038;53.200;6.530;2023-12-28T00:22:41;9.10;;;3.30;;
76236;SDS011;65038;53.200;6.530;2023-12-28T00:25:07;9.00;;;2.90;;
76236;SDS011;65038;53.200;6.530;2023-12-28T00:27:33;6.13;;;3.20;;
76236;SDS011;65038;53.200;6.530;2023-12-28T00:30:00;6.93;;;3.45;;
76236;SDS011;65038;53.200;6.530;2023-12-28T00:32:26;6.93;;;3.00;;
76236;SDS011;65038;53.200;6.530;2023-12-28T00:34:52;5.93;;;3.00;;
76236;SDS011;65038;53.200;6.530;2023-12-28T00:37:18;6.10;;;3.13;;
76236;SDS011;65038;53.200;6.530;2023-12-28T00:39:44;6.95;;;3.20;;
76236;SDS011;65038;53.200;6.530;2023-12-28T00:42:12;6.30;;;3.20;;
76236;SDS011;65038;53.200;6.530;2023-12-28T00:44:38;5.43;;;2.95;;
76236;SDS011;65038;53.200;6.530;2023-12-28T00:47:04;6.65;;;3.25;;
76236;SDS011;65038;53.200;6.530;2023-12-28T00:49:31;8.40;;;3.70;;
76236;SDS011;65038;53.200;6.530;2023-12-28T00:51:57;9.02;;;3.42;;
76236;SDS011;65038;53.200;6.530;2023-12-28T00:54:23;7.63;;;3.30;;
76236;SDS011;65038;53.200;6.530;2023-12-28T00:56:49;8.90;;;3.40;;
76236;SDS011;65038;53.200;6.530;2023-12-28T00:59:15;7.13;;;3.28;;
76236;SDS011;65038;53.200;6.530;2023-12-28T01:01:41;10.10;;;3.63;;
76236;SDS011;65038;53.200;6.530;2023-12-28T01:04:07;6.65;;;2.97;;
76236;SDS011;65038;53.200;6.530;2023-12-28T01:06:33;7.30;;;3.05;;
76236;SDS011;65038;53.200;6.530;2023-12-28T01:08:59;6.72;;;3.30;;
76236;SDS011;65038;53.200;6.530;2023-12-28T01:11:25;7.15;;;2.85;;
76236;SDS011;65038;53.200;6.530;2023-12-28T01:13:51;10.82;;;3.50;;
76236;SDS011;65038;53.200;6.530;2023-12-28T01:16:17;8.25;;;3.25;;
76236;SDS011;65038;53.200;6.530;2023-12-28T01:18:43;8.93;;;3.08;;
76236;SDS011;65038;53.200;6.530;2023-12-28T01:21:09;13.48;;;4.07;;
76236;SDS011;65038;53.200;6.530;2023-12-28T01:23:35;8.80;;;3.05;;
76236;SDS011;65038;53.200;6.530;2023-12-28T01:26:01;7.85;;;3.00;;
76236;SDS011;65038;53.200;6.530;2023-12-28T01:28:27;9.90;;;3.38;;
76236;SDS011;65038;53.200;6.530;2023-12-28T01:30:53;12.63;;;3.20;;
76236;SDS011;65038;53.200;6.530;2023-12-28T01:33:19;8.43;;;2.92;;
76236;SDS011;65038;53.200;6.530;2023-12-28T01:35:45;6.80;;;3.03;;
76236;SDS011;65038;53.200;6.530;2023-12-28T01:38:11;6.53;;;3.22;;
76236;SDS011;65038;53.200;6.530;2023-12-28T01:40:37;7.80;;;2.65;;
76236;SDS011;65038;53.200;6.530;2023-12-28T01:43:04;13.10;;;3.25;;
76236;SDS011;65038;53.200;6.530;2023-12-28T01:45:30;10.07;;;3.30;;
76236;SDS011;65038;53.200;6.530;2023-12-28T01:47:56;9.52;;;3.45;;
76236;SDS011;65038;53.200;6.530;2023-12-28T01:50:23;9.30;;;3.10;;
76236;SDS011;65038;53.200;6.530;2023-12-28T01:52:50;11.18;;;3.58;;
76236;SDS011;65038;53.200;6.530;2023-12-28T01:55:16;11.93;;;3.50;;
76236;SDS011;65038;53.200;6.530;2023-12-28T01:57:42;7.82;;;3.00;;
76236;SDS011;65038;53.200;6.530;2023-12-28T02:00:09;11.30;;;3.05;;
76236;SDS011;65038;53.200;6.530;2023-12-28T02:02:35;8.82;;;2.72;;
76236;SDS011;65038;53.200;6.530;2023-12-28T02:05:02;13.65;;;3.30;;
76236;SDS011;65038;53.200;6.530;2023-12-28T02:07:28;15.70;;;2.92;;
76236;SDS011;65038;53.200;6.530;2023-12-28T02:09:55;10.40;;;3.17;;
76236;SDS011;65038;53.200;6.530;2023-12-28T02:12:21;13.60;;;3.05;;
76236;SDS011;65038;53.200;6.530;2023-12-28T02:14:47;11.20;;;2.90;;
76236;SDS011;65038;53.200;6.530;2023-12-28T02:17:16;9.45;;;3.08;;
76236;SDS011;65038;53.200;6.530;2023-12-28T02:19:49;9.27;;;3.05;;
76236;SDS011;65038;53.200;6.530;2023-12-28T02:22:16;12.23;;;3.47;;
76236;SDS011;65038;53.200;6.530;2023-12-28T02:24:55;10.75;;;3.28;;
76236;SDS011;65038;53.200;6.530;2023-12-28T02:27:21;8.68;;;2.97;;
76236;SDS011;65038;53.200;6.530;2023-12-28T02:29:47;12.20;;;3.35;;
76236;SDS011;65038;53.200;6.530;2023-12-28T02:32:13;11.25;;;2.88;;
76236;SDS011;65038;53.200;6.530;2023-12-28T02:34:41;13.43;;;2.97;;
76236;SDS011;65038;53.200;6.530;2023-12-28T02:37:08;11.25;;;2.95;;
76236;SDS011;65038;53.200;6.530;2023-12-28T02:39:34;12.15;;;2.70;;
76236;SDS011;65038;53.200;6.530;2023-12-28T02:42:01;10.82;;;2.88;;
76236;SDS011;65038;53.200;6.530;2023-12-28T02:44:27;11.00;;;3.10;;
76236;SDS011;65038;53.200;6.530;2023-12-28T02:46:53;13.30;;;3.13;;
76236;SDS011;65038;53.200;6.530;2023-12-28T02:49:20;9.18;;;2.78;;
76236;SDS011;65038;53.200;6.530;2023-12-28T02:51:45;11.43;;;3.00;;
76236;SDS011;65038;53.200;6.530;2023-12-28T02:54:12;10.05;;;3.20;;
76236;SDS011;65038;53.200;6.530;2023-12-28T02:56:39;8.38;;;3.05;;
76236;SDS011;65038;53.200;6.530;2023-12-28T02:59:06;11.95;;;2.95;;
76236;SDS011;65038;53.200;6.530;2023-12-28T03:01:32;11.23;;;3.03;;
76236;SDS011;65038;53.200;6.530;2023-12-28T03:03:58;9.43;;;2.97;;
76236;SDS011;65038;53.200;6.530;2023-12-28T03:06:24;9.30;;;2.70;;
76236;SDS011;65038;53.200;6.530;2023-12-28T03:08:50;13.57;;;3.10;;
76236;SDS011;65038;53.200;6.530;2023-12-28T03:11:16;10.45;;;3.03;;
76236;SDS011;65038;53.200;6.530;2023-12-28T03:13:42;10.57;;;2.90;;
76236;SDS011;65038;53.200;6.530;2023-12-28T03:16:08;9.13;;;2.53;;
76236;SDS011;65038;53.200;6.530;2023-12-28T03:18:34;9.50;;;2.83;;
76236;SDS011;65038;53.200;6.530;2023-12-28T03:21:00;11.18;;;3.05;;
76236;SDS011;65038;53.200;6.530;2023-12-28T03:23:26;12.00;;;3.45;;
76236;SDS011;65038;53.200;6.530;2023-12-28T03:25:52;13.55;;;3.15;;
76236;SDS011;65038;53.200;6.530;2023-12-28T03:28:18;13.60;;;2.90;;
76236;SDS011;65038;53.200;6.530;2023-12-28T03:30:45;11.70;;;2.92;;
76236;SDS011;65038;53.200;6.530;2023-12-28T03:33:11;11.07;;;2.88;;
76236;SDS011;65038;53.200;6.530;2023-12-28T03:35:37;10.18;;;2.60;;
76236;SDS011;65038;53.200;6.530;2023-12-28T03:38:03;15.07;;;2.72;;
76236;SDS011;65038;53.200;6.530;2023-12-28T03:40:29;12.93;;;2.75;;
76236;SDS011;65038;53.200;6.530;2023-12-28T03:42:55;8.40;;;2.30;;
76236;SDS011;65038;53.200;6.530;2023-12-28T03:45:21;10.00;;;2.85;;
76236;SDS011;65038;53.200;6.530;2023-12-28T03:47:47;10.30;;;2.55;;
76236;SDS011;65038;53.200;6.530;2023-12-28T03:50:13;8.90;;;2.30;;
76236;SDS011;65038;53.200;6.530;2023-12-28T03:52:40;8.98;;;2.70;;
76236;SDS011;65038;53.200;6.530;2023-12-28T03:55:06;13.05;;;2.58;;
76236;SDS011;65038;53.200;6.530;2023-12-28T03:57:32;12.07;;;2.40;;
76236;SDS011;65038;53.200;6.530;2023-12-28T03:59:58;11.27;;;2.50;;
76236;SDS011;65038;53.200;6.530;2023-12-28T04:02:24;10.25;;;2.60;;
76236;SDS011;65038;53.200;6.530;2023-12-28T04:04:55;13.43;;;2.80;;
76236;SDS011;65038;53.200;6.530;2023-12-28T04:07:23;13.80;;;2.90;;
76236;SDS011;65038;53.200;6.530;2023-12-28T04:09:49;11.18;;;3.17;;
76236;SDS011;65038;53.200;6.530;2023-12-28T04:12:15;13.38;;;2.92;;
76236;SDS011;65038;53.200;6.530;2023-12-28T04:14:41;8.75;;;2.65;;
76236;SDS011;65038;53.200;6.530;2023-12-28T04:17:07;12.02;;;2.40;;
76236;SDS011;65038;53.200;6.530;2023-12-28T04:19:33;11.82;;;2.40;;
76236;SDS011;65038;53.200;6.530;2023-12-28T04:21:59;10.48;;;2.40;;
76236;SDS011;65038;53.200;6.530;2023-12-28T04:24:25;12.32;;;2.83;;
76236;SDS011;65038;53.200;6.530;2023-12-28T04:26:51;11.80;;;2.65;;
76236;SDS011;65038;53.200;6.530;2023-12-28T04:29:17;9.43;;;2.35;;
76236;SDS011;65038;53.200;6.530;2023-12-28T04:31:43;9.80;;;2.60;;
76236;SDS011;65038;53.200;6.530;2023-12-28T04:34:10;11.95;;;2.63;;
76236;SDS011;65038;53.200;6.530;2023-12-28T04:36:40;13.93;;;2.53;;
76236;SDS011;65038;53.200;6.530;2023-12-28T04:39:07;16.52;;;2.97;;
76236;SDS011;65038;53.200;6.530;2023-12-28T04:41:33;12.23;;;2.20;;
76236;SDS011;65038;53.200;6.530;2023-12-28T04:43:59;13.73;;;2.50;;
76236;SDS011;65038;53.200;6.530;2023-12-28T04:46:25;10.45;;;2.60;;
76236;SDS011;65038;53.200;6.530;2023-12-28T04:48:51;12.63;;;2.42;;
76236;SDS011;65038;53.200;6.530;2023-12-28T04:51:17;16.70;;;3.00;;
76236;SDS011;65038;53.200;6.530;2023-12-28T04:53:43;10.80;;;2.40;;
76236;SDS011;65038;53.200;6.530;2023-12-28T04:56:09;10.75;;;2.45;;
76236;SDS011;65038;53.200;6.530;2023-12-28T04:58:35;13.40;;;2.50;;
76236;SDS011;65038;53.200;6.530;2023-12-28T05:01:01;13.25;;;2.88;;
76236;SDS011;65038;53.200;6.530;2023-12-28T05:03:27;12.20;;;2.80;;
76236;SDS011;65038;53.200;6.530;2023-12-28T05:05:53;13.85;;;3.05;;
76236;SDS011;65038;53.200;6.530;2023-12-28T05:08:19;15.27;;;2.92;;
76236;SDS011;65038;53.200;6.530;2023-12-28T05:10:45;11.02;;;2.63;;
76236;SDS011;65038;53.200;6.530;2023-12-28T05:13:11;13.57;;;3.03;;
76236;SDS011;65038;53.200;6.530;2023-12-28T05:15:37;12.70;;;2.63;;
76236;SDS011;65038;53.200;6.530;2023-12-28T05:18:03;16.00;;;2.90;;
76236;SDS011;65038;53.200;6.530;2023-12-28T05:20:31;17.98;;;2.70;;
76236;SDS011;65038;53.200;6.530;2023-12-28T05:22:57;8.85;;;2.42;;
76236;SDS011;65038;53.200;6.530;2023-12-28T05:25:23;16.30;;;2.45;;
76236;SDS011;65038;53.200;6.530;2023-12-28T05:27:49;14.63;;;2.90;;
76236;SDS011;65038;53.200;6.530;2023-12-28T05:30:15;10.85;;;2.70;;
76236;SDS011;65038;53.200;6.530;2023-12-28T05:32:41;12.60;;;2.78;;
76236;SDS011;65038;53.200;6.530;2023-12-28T05:35:07;11.85;;;2.42;;
76236;SDS011;65038;53.200;6.530;2023-12-28T05:37:33;13.95;;;2.88;;
76236;SDS011;65038;53.200;6.530;2023-12-28T05:40:00;14.20;;;2.70;;
76236;SDS011;65038;53.200;6.530;2023-12-28T05:42:26;14.80;;;2.55;;
76236;SDS011;65038;53.200;6.530;2023-12-28T05:44:52;14.70;;;2.55;;
76236;SDS011;65038;53.200;6.530;2023-12-28T05:47:18;13.20;;;2.80;;
76236;SDS011;65038;53.200;6.530;2023-12-28T05:49:44;14.10;;;3.22;;
76236;SDS011;65038;53.200;6.530;2023-12-28T05:52:10;14.68;;;3.20;;
76236;SDS011;65038;53.200;6.530;2023-12-28T05:54:36;13.18;;;2.78;;
76236;SDS011;65038;53.200;6.530;2023-12-28T05:57:02;14.35;;;2.55;;
76236;SDS011;65038;53.200;6.530;2023-12-28T05:59:28;10.38;;;2.40;;
76236;SDS011;65038;53.200;6.530;2023-12-28T06:01:54;16.80;;;2.85;;
76236;SDS011;65038;53.200;6.530;2023-12-28T06:04:20;12.40;;;2.45;;
76236;SDS011;65038;53.200;6.530;2023-12-28T06:06:46;15.93;;;2.80;;
76236;SDS011;65038;53.200;6.530;2023-12-28T06:09:12;13.02;;;2.90;;
76236;SDS011;65038;53.200;6.530;2023-12-28T06:11:38;17.17;;;2.60;;
76236;SDS011;65038;53.200;6.530;2023-12-28T06:14:04;16.73;;;2.90;;
76236;SDS011;65038;53.200;6.530;2023-12-28T06:16:30;13.77;;;2.88;;
76236;SDS011;65038;53.200;6.530;2023-12-28T06:18:58;10.90;;;2.55;;
76236;SDS011;65038;53.200;6.530;2023-12-28T06:21:25;13.45;;;2.65;;
76236;SDS011;65038;53.200;6.530;2023-12-28T06:23:51;16.02;;;2.85;;
76236;SDS011;65038;53.200;6.530;2023-12-28T06:26:17;14.10;;;3.00;;
76236;SDS011;65038;53.200;6.530;2023-12-28T06:28:43;12.02;;;2.65;;
76236;SDS011;65038;53.200;6.530;2023-12-28T06:31:09;13.15;;;2.55;;
76236;SDS011;65038;53.200;6.530;2023-12-28T06:33:35;12.02;;;2.65;;
76236;SDS011;65038;53.200;6.530;2023-12-28T06:36:06;15.25;;;2.90;;
76236;SDS011;65038;53.200;6.530;2023-12-28T06:38:33;18.80;;;2.75;;
76236;SDS011;65038;53.200;6.530;2023-12-28T06:40:59;14.93;;;2.45;;
76236;SDS011;65038;53.200;6.530;2023-12-28T06:43:25;13.20;;;2.90;;
76236;SDS011;65038;53.200;6.530;2023-12-28T06:45:51;12.88;;;2.95;;
76236;SDS011;65038;53.200;6.530;2023-12-28T06:48:17;14.40;;;3.35;;
76236;SDS011;65038;53.200;6.530;2023-12-28T06:50:43;12.98;;;2.97;;
76236;SDS011;65038;53.200;6.530;2023-12-28T06:53:09;15.75;;;3.08;;
76236;SDS011;65038;53.200;6.530;2023-12-28T06:55:35;12.15;;;2.63;;
76236;SDS011;65038;53.200;6.530;2023-12-28T06:58:01;18.65;;;2.95;;
76236;SDS011;65038;53.200;6.530;2023-12-28T07:00:28;15.13;;;2.90;;
76236;SDS011;65038;53.200;6.530;2023-12-28T07:02:54;20.25;;;3.05;;
76236;SDS011;65038;53.200;6.530;2023-12-28T07:05:20;16.45;;;2.92;;
76236;SDS011;65038;53.200;6.530;2023-12-28T07:07:46;15.02;;;2.72;;
76236;SDS011;65038;53.200;6.530;2023-12-28T07:10:12;13.98;;;3.45;;
76236;SDS011;65038;53.200;6.530;2023-12-28T07:12:38;15.38;;;2.90;;
76236;SDS011;65038;53.200;6.530;2023-12-28T07:15:04;12.00;;;2.60;;
76236;SDS011;65038;53.200;6.530;2023-12-28T07:17:30;17.90;;;2.88;;
76236;SDS011;65038;53.200;6.530;2023-12-28T07:19:56;14.63;;;2.90;;
76236;SDS011;65038;53.200;6.530;2023-12-28T07:22:22;11.18;;;2.90;;
76236;SDS011;65038;53.200;6.530;2023-12-28T07:24:48;17.10;;;3.08;;
76236;SDS011;65038;53.200;6.530;2023-12-28T07:27:14;13.75;;;2.58;;
76236;SDS011;65038;53.200;6.530;2023-12-28T07:29:40;15.68;;;3.15;;
76236;SDS011;65038;53.200;6.530;2023-12-28T07:32:06;16.88;;;2.83;;
76236;SDS011;65038;53.200;6.530;2023-12-28T07:34:34;15.40;;;3.05;;
76236;SDS011;65038;53.200;6.530;2023-12-28T07:37:00;19.83;;;3.45;;
76236;SDS011;65038;53.200;6.530;2023-12-28T07:39:26;14.82;;;2.90;;
76236;SDS011;65038;53.200;6.530;2023-12-28T07:41:52;16.15;;;4.03;;
76236;SDS011;65038;53.200;6.530;2023-12-28T07:44:19;17.90;;;3.22;;
76236;SDS011;65038;53.200;6.530;2023-12-28T07:46:44;21.95;;;3.40;;
76236;SDS011;65038;53.200;6.530;2023-12-28T07:49:11;18.25;;;3.63;;
76236;SDS011;65038;53.200;6.530;2023-12-28T07:51:37;17.65;;;3.03;;
76236;SDS011;65038;53.200;6.530;2023-12-28T07:54:03;15.70;;;3.25;;
76236;SDS011;65038;53.200;6.530;2023-12-28T07:56:29;19.73;;;3.53;;
76236;SDS011;65038;53.200;6.530;2023-12-28T07:58:55;17.70;;;3.05;;
76236;SDS011;65038;53.200;6.530;2023-12-28T08:01:21;23.20;;;3.60;;
76236;SDS011;65038;53.200;6.530;2023-12-28T08:03:47;19.42;;;3.20;;
76236;SDS011;65038;53.200;6.530;2023-12-28T08:06:13;17.10;;;3.83;;
76236;SDS011;65038;53.200;6.530;2023-12-28T08:08:40;15.98;;;2.83;;
76236;SDS011;65038;53.200;6.530;2023-12-28T08:11:06;19.00;;;3.25;;
76236;SDS011;65038;53.200;6.530;2023-12-28T08:13:32;22.50;;;3.45;;
76236;SDS011;65038;53.200;6.530;2023-12-28T08:15:58;18.05;;;3.42;;
76236;SDS011;65038;53.200;6.530;2023-12-28T08:18:24;18.73;;;3.92;;
76236;SDS011;65038;53.200;6.530;2023-12-28T08:20:50;17.75;;;3.47;;
76236;SDS011;65038;53.200;6.530;2023-12-28T08:23:16;19.20;;;3.88;;
76236;SDS011;65038;53.200;6.530;2023-12-28T08:25:42;22.80;;;3.95;;
76236;SDS011;65038;53.200;6.530;2023-12-28T08:28:08;21.45;;;3.95;;
76236;SDS011;65038;53.200;6.530;2023-12-28T08:30:34;24.63;;;4.40;;
76236;SDS011;65038;53.200;6.530;2023-12-28T08:33:00;21.92;;;3.72;;
76236;SDS011;65038;53.200;6.530;2023-12-28T08:35:26;23.95;;;3.88;;
76236;SDS011;65038;53.200;6.530;2023-12-28T08:37:52;17.40;;;3.72;;
76236;SDS011;65038;53.200;6.530;2023-12-28T08:40:18;25.73;;;4.13;;
76236;SDS011;65038;53.200;6.530;2023-12-28T08:42:44;25.63;;;4.22;;
76236;SDS011;65038;53.200;6.530;2023-12-28T08:45:10;24.55;;;3.95;;
76236;SDS011;65038;53.200;6.530;2023-12-28T08:47:36;19.15;;;3.50;;
76236;SDS011;65038;53.200;6.530;2023-12-28T08:50:02;23.58;;;3.90;;
76236;SDS011;65038;53.200;6.530;2023-12-28T08:52:29;24.48;;;3.80;;
76236;SDS011;65038;53.200;6.530;2023-12-28T08:54:55;19.10;;;3.83;;
76236;SDS011;65038;53.200;6.530;2023-12-28T08:57:21;23.63;;;4.25;;
76236;SDS011;65038;53.200;6.530;2023-12-28T08:59:46;22.83;;;4.50;;
76236;SDS011;65038;53.200;6.530;2023-12-28T09:02:12;23.48;;;4.07;;
76236;SDS011;65038;53.200;6.530;2023-12-28T09:04:38;30.42;;;4.65;;
76236;SDS011;65038;53.200;6.530;2023-12-28T09:07:04;26.60;;;4.32;;
76236;SDS011;65038;53.200;6.530;2023-12-28T09:09:30;19.67;;;4.22;;
76236;SDS011;65038;53.200;6.530;2023-12-28T09:11:56;22.70;;;3.83;;
76236;SDS011;65038;53.200;6.530;2023-12-28T09:14:22;28.48;;;4.32;;
76236;SDS011;65038;53.200;6.530;2023-12-28T09:16:48;23.65;;;4.88;;
76236;SDS011;65038;53.200;6.530;2023-12-28T09:19:14;22.88;;;3.97;;
76236;SDS011;65038;53.200;6.530;2023-12-28T09:21:40;26.80;;;4.25;;
76236;SDS011;65038;53.200;6.530;2023-12-28T09:24:06;23.77;;;4.00;;
76236;SDS011;65038;53.200;6.530;2023-12-28T09:26:33;25.83;;;4.30;;
76236;SDS011;65038;53.200;6.530;2023-12-28T09:28:59;22.30;;;4.13;;
76236;SDS011;65038;53.200;6.530;2023-12-28T09:31:25;22.98;;;4.05;;
76236;SDS011;65038;53.200;6.530;2023-12-28T09:33:51;17.00;;;3.53;;
76236;SDS011;65038;53.200;6.530;2023-12-28T09:36:17;22.42;;;4.35;;
76236;SDS011;65038;53.200;6.530;2023-12-28T09:38:43;25.73;;;3.95;;
76236;SDS011;65038;53.200;6.530;2023-12-28T09:41:11;18.45;;;3.83;;
76236;SDS011;65038;53.200;6.530;2023-12-28T09:43:41;20.25;;;4.00;;
76236;SDS011;65038;53.200;6.530;2023-12-28T09:46:11;23.88;;;3.80;;
76236;SDS011;65038;53.200;6.530;2023-12-28T09:48:38;19.15;;;3.53;;
76236;SDS011;65038;53.200;6.530;2023-12-28T09:51:04;21.30;;;3.83;;
76236;SDS011;65038;53.200;6.530;2023-12-28T09:53:31;19.52;;;3.50;;
76236;SDS011;65038;53.200;6.530;2023-12-28T09:55:57;23.63;;;4.40;;
76236;SDS011;65038;53.200;6.530;2023-12-28T09:58:23;22.63;;;3.67;;
76236;SDS011;65038;53.200;6.530;2023-12-28T10:00:49;26.20;;;3.80;;
76236;SDS011;65038;53.200;6.530;2023-12-28T10:03:16;23.05;;;4.10;;
76236;SDS011;65038;53.200;6.530;2023-12-28T10:05:42;21.13;;;3.95;;
76236;SDS011;65038;53.200;6.530;2023-12-28T10:08:12;20.20;;;3.70;;
76236;SDS011;65038;53.200;6.530;2023-12-28T10:10:39;25.65;;;3.75;;
76236;SDS011;65038;53.200;6.530;2023-12-28T10:13:08;23.67;;;3.90;;
76236;SDS011;65038;53.200;6.530;2023-12-28T10:15:38;23.60;;;4.15;;
76236;SDS011;65038;53.200;6.530;2023-12-28T10:18:04;24.27;;;4.25;;
76236;SDS011;65038;53.200;6.530;2023-12-28T10:20:30;22.10;;;4.25;;
76236;SDS011;65038;53.200;6.530;2023-12-28T10:22:57;22.75;;;3.60;;
76236;SDS011;65038;53.200;6.530;2023-12-28T10:25:23;20.10;;;3.30;;
76236;SDS011;65038;53.200;6.530;2023-12-28T10:27:52;15.60;;;3.63;;
76236;SDS011;65038;53.200;6.530;2023-12-28T10:30:22;21.83;;;3.38;;
76236;SDS011;65038;53.200;6.530;2023-12-28T10:32:48;18.58;;;3.40;;
76236;SDS011;65038;53.200;6.530;2023-12-28T10:35:14;18.95;;;3.63;;
76236;SDS011;65038;53.200;6.530;2023-12-28T10:37:41;23.15;;;4.03;;
76236;SDS011;65038;53.200;6.530;2023-12-28T10:40:07;21.38;;;3.55;;
76236;SDS011;65038;53.200;6.530;2023-12-28T10:42:36;19.98;;;3.78;;
76236;SDS011;65038;53.200;6.530;2023-12-28T10:45:03;24.08;;;3.60;;
76236;SDS011;65038;53.200;6.530;2023-12-28T10:47:33;20.17;;;3.80;;
76236;SDS011;65038;53.200;6.530;2023-12-28T10:50:05;17.08;;;3.40;;
76236;SDS011;65038;53.200;6.530;2023-12-28T10:52:32;18.08;;;3.53;;
76236;SDS011;65038;53.200;6.530;2023-12-28T10:57:33;17.98;;;3.20;;
76236;SDS011;65038;53.200;6.530;2023-12-28T11:00:13;22.00;;;3.58;;
76236;SDS011;65038;53.200;6.530;2023-12-28T11:02:44;16.90;;;4.00;;
76236;SDS011;65038;53.200;6.530;2023-12-28T11:05:11;21.23;;;3.70;;
76236;SDS011;65038;53.200;6.530;2023-12-28T11:07:38;17.25;;;3.15;;
76236;SDS011;65038;53.200;6.530;2023-12-28T11:10:05;20.85;;;3.33;;
76236;SDS011;65038;53.200;6.530;2023-12-28T11:12:32;18.13;;;3.50;;
76236;SDS011;65038;53.200;6.530;2023-12-28T11:14:58;21.92;;;3.97;;
76236;SDS011;65038;53.200;6.530;2023-12-28T11:17:25;21.63;;;4.07;;
76236;SDS011;65038;53.200;6.530;2023-12-28T11:19:51;16.65;;;3.35;;
76236;SDS011;65038;53.200;6.530;2023-12-28T11:22:18;21.42;;;3.90;;
76236;SDS011;65038;53.200;6.530;2023-12-28T11:24:45;21.65;;;4.10;;
76236;SDS011;65038;53.200;6.530;2023-12-28T11:27:11;20.55;;;3.20;;
76236;SDS011;65038;53.200;6.530;2023-12-28T11:29:38;24.05;;;3.97;;
76236;SDS011;65038;53.200;6.530;2023-12-28T11:32:04;22.38;;;3.97;;
76236;SDS011;65038;53.200;6.530;2023-12-28T11:34:30;21.70;;;3.53;;
76236;SDS011;65038;53.200;6.530;2023-12-28T11:37:00;24.17;;;4.18;;
76236;SDS011;65038;53.200;6.530;2023-12-28T11:39:30;18.58;;;3.55;;
76236;SDS011;65038;53.200;6.530;2023-12-28T11:42:03;20.20;;;3.47;;
76236;SDS011;65038;53.200;6.530;2023-12-28T11:44:29;19.60;;;4.03;;
76236;SDS011;65038;53.200;6.530;2023-12-28T11:46:56;25.70;;;4.20;;
76236;SDS011;65038;53.200;6.530;2023-12-28T11:49:25;24.45;;;3.97;;
76236;SDS011;65038;53.200;6.530;2023-12-28T11:51:57;17.48;;;3.60;;
76236;SDS011;65038;53.200;6.530;2023-12-28T11:54:25;17.98;;;3.30;;
76236;SDS011;65038;53.200;6.530;2023-12-28T11:56:51;20.50;;;3.90;;
76236;SDS011;65038;53.200;6.530;2023-12-28T11:59:18;21.65;;;3.53;;
76236;SDS011;65038;53.200;6.530;2023-12-28T12:01:49;24.48;;;3.72;;
76236;SDS011;65038;53.200;6.530;2023-12-28T12:04:22;20.13;;;3.97;;
76236;SDS011;65038;53.200;6.530;2023-12-28T12:06:48;18.23;;;3.83;;
76236;SDS011;65038;53.200;6.530;2023-12-28T12:09:16;21.20;;;3.42;;
76236;SDS011;65038;53.200;6.530;2023-12-28T12:11:47;22.55;;;3.83;;
76236;SDS011;65038;53.200;6.530;2023-12-28T12:14:14;21.65;;;3.50;;
76236;SDS011;65038;53.200;6.530;2023-12-28T12:16:40;24.52;;;3.97;;
76236;SDS011;65038;53.200;6.530;2023-12-28T12:19:06;22.65;;;4.30;;
76236;SDS011;65038;53.200;6.530;2023-12-28T12:21:32;26.48;;;3.83;;
76236;SDS011;65038;53.200;6.530;2023-12-28T12:23:59;24.90;;;4.60;;
76236;SDS011;65038;53.200;6.530;2023-12-28T12:26:26;27.73;;;4.38;;
76236;SDS011;65038;53.200;6.530;2023-12-28T12:28:52;23.50;;;3.42;;
76236;SDS011;65038;53.200;6.530;2023-12-28T12:31:18;19.42;;;3.72;;
76236;SDS011;65038;53.200;6.530;2023-12-28T12:33:45;23.05;;;3.80;;
76236;SDS011;65038;53.200;6.530;2023-12-28T12:36:11;25.25;;;4.15;;
76236;SDS011;65038;53.200;6.530;2023-12-28T12:38:37;25.95;;;4.40;;
76236;SDS011;65038;53.200;6.530;2023-12-28T12:41:03;25.52;;;4.38;;
76236;SDS011;65038;53.200;6.530;2023-12-28T12:43:29;26.67;;;4.38;;
76236;SDS011;65038;53.200;6.530;2023-12-28T12:45:55;21.77;;;4.15;;
76236;SDS011;65038;53.200;6.530;2023-12-28T12:48:21;20.23;;;3.60;;
76236;SDS011;65038;53.200;6.530;2023-12-28T12:50:47;21.75;;;3.80;;
76236;SDS011;65038;53.200;6.530;2023-12-28T12:53:13;22.92;;;4.00;;
76236;SDS011;65038;53.200;6.530;2023-12-28T12:55:39;21.42;;;4.03;;
76236;SDS011;65038;53.200;6.530;2023-12-28T12:58:07;26.35;;;4.65;;
76236;SDS011;65038;53.200;6.530;2023-12-28T13:00:34;20.17;;;3.95;;
76236;SDS011;65038;53.200;6.530;2023-12-28T13:03:00;19.90;;;3.78;;
76236;SDS011;65038;53.200;6.530;2023-12-28T13:05:28;27.65;;;4.10;;
76236;SDS011;65038;53.200;6.530;2023-12-28T13:07:54;29.42;;;4.78;;
76236;SDS011;65038;53.200;6.530;2023-12-28T13:10:20;22.33;;;4.30;;
76236;SDS011;65038;53.200;6.530;2023-12-28T13:12:46;24.63;;;4.07;;
76236;SDS011;65038;53.200;6.530;2023-12-28T13:15:13;25.20;;;3.70;;
76236;SDS011;65038;53.200;6.530;2023-12-28T13:17:39;21.48;;;3.72;;
76236;SDS011;65038;53.200;6.530;2023-12-28T13:20:05;19.63;;;3.72;;
76236;SDS011;65038;53.200;6.530;2023-12-28T13:22:31;23.02;;;3.72;;
76236;SDS011;65038;53.200;6.530;2023-12-28T13:24:58;20.83;;;3.88;;
76236;SDS011;65038;53.200;6.530;2023-12-28T13:27:24;19.00;;;3.53;;
76236;SDS011;65038;53.200;6.530;2023-12-28T13:29:51;24.88;;;3.70;;
76236;SDS011;65038;53.200;6.530;2023-12-28T13:32:17;23.83;;;3.60;;
76236;SDS011;65038;53.200;6.530;2023-12-28T13:34:43;20.17;;;3.33;;
76236;SDS011;65038;53.200;6.530;2023-12-28T13:37:09;20.35;;;3.75;;
76236;SDS011;65038;53.200;6.530;2023-12-28T13:39:35;22.48;;;3.47;;
76236;SDS011;65038;53.200;6.530;2023-12-28T13:42:04;21.63;;;4.25;;
76236;SDS011;65038;53.200;6.530;2023-12-28T13:44:32;19.52;;;3.65;;
76236;SDS011;65038;53.200;6.530;2023-12-28T13:46:58;18.45;;;3.53;;
76236;SDS011;65038;53.200;6.530;2023-12-28T13:49:24;23.67;;;3.67;;
76236;SDS011;65038;53.200;6.530;2023-12-28T13:51:51;23.98;;;3.95;;
76236;SDS011;65038;53.200;6.530;2023-12-28T13:54:17;17.65;;;3.30;;
76236;SDS011;65038;53.200;6.530;2023-12-28T13:56:44;24.27;;;3.80;;
76236;SDS011;65038;53.200;6.530;2023-12-28T13:59:11;21.02;;;3.75;;
76236;SDS011;65038;53.200;6.530;2023-12-28T14:01:37;18.95;;;3.70;;
76236;SDS011;65038;53.200;6.530;2023-12-28T14:04:06;18.70;;;3.75;;
76236;SDS011;65038;53.200;6.530;2023-12-28T14:06:33;19.15;;;3.67;;
76236;SDS011;65038;53.200;6.530;2023-12-28T14:08:59;19.80;;;3.70;;
76236;SDS011;65038;53.200;6.530;2023-12-28T14:11:25;18.50;;;3.90;;
76236;SDS011;65038;53.200;6.530;2023-12-28T14:13:51;20.83;;;3.63;;
76236;SDS011;65038;53.200;6.530;2023-12-28T14:16:17;21.33;;;3.92;;
76236;SDS011;65038;53.200;6.530;2023-12-28T14:18:43;20.88;;;3.80;;
76236;SDS011;65038;53.200;6.530;2023-12-28T14:21:09;18.45;;;3.65;;
76236;SDS011;65038;53.200;6.530;2023-12-28T14:23:37;26.65;;;6.72;;
76236;SDS011;65038;53.200;6.530;2023-12-28T14:26:04;19.20;;;4.35;;
76236;SDS011;65038;53.200;6.530;2023-12-28T14:28:33;21.67;;;4.45;;
76236;SDS011;65038;53.200;6.530;2023-12-28T14:31:01;25.25;;;4.38;;
76236;SDS011;65038;53.200;6.530;2023-12-28T14:33:28;21.58;;;4.03;;